Time;durP1;ratioP1;P1;durP2;ratioP2;P2;SDS_P1;SDS_P2;PMS_P1;PMS_P2;Temp;Humidity;BMP_temperature;BMP_pressure;BME280_temperature;BME280_humidity;BME280_pressure;Samples;Min_cycle;Max_cycle;Signal;HPM_P1;HPM_P2
2022/07/10 00:04:08;;;;;;;5.10;1.60;;;;;;;13.94;70.29;101526.06;5056091;28;20292;-79
2022/07/10 00:06:46;;;;;;;3.40;0.70;;;;;;;13.77;70.84;101513.19;5056444;28;20229;-80
2022/07/10 00:09:29;;;;;;;4.73;1.30;;;;;;;13.65;71.69;101488.00;5066513;28;20266;-79
2022/07/10 00:12:12;;;;;;;3.07;0.80;;;;;;;13.50;72.13;101476.00;5053673;28;20290;-80
2022/07/10 00:14:57;;;;;;;4.13;0.87;;;;;;;13.66;72.11;101470.53;5062372;28;20218;-80
2022/07/10 00:17:30;;;;;;;6.40;0.83;;;;;;;13.61;71.63;101478.44;5056879;28;20229;-79
2022/07/10 00:20:01;;;;;;;4.03;1.13;;;;;;;13.46;72.77;101470.81;5058748;28;20196;-80
2022/07/10 00:22:44;;;;;;;3.97;1.10;;;;;;;13.39;72.84;101456.91;5057857;28;20195;-79
2022/07/10 00:25:26;;;;;;;4.00;1.00;;;;;;;13.56;72.13;101456.66;5056770;28;20200;-80
2022/07/10 00:27:55;;;;;;;3.10;1.07;;;;;;;13.66;72.00;101465.28;5057867;28;20220;-79
2022/07/10 00:30:43;;;;;;;5.87;1.43;;;;;;;13.73;71.56;101489.66;5058913;28;20200;-80
2022/07/10 00:33:17;;;;;;;2.57;1.10;;;;;;;13.46;71.83;101489.19;5056428;28;20220;-80
2022/07/10 00:35:53;;;;;;;3.53;0.97;;;;;;;13.56;71.93;101472.41;5056011;28;20212;-80
2022/07/10 00:38:29;;;;;;;3.57;0.90;;;;;;;13.50;72.02;101475.13;5057715;28;20220;-80
2022/07/10 00:44:20;;;;;;;1.83;0.70;;;;;;;13.57;71.76;101482.00;5066953;28;20204;-78
2022/07/10 00:46:56;;;;;;;2.83;1.67;;;;;;;13.49;71.46;101489.97;5028566;28;20209;-78
2022/07/10 00:49:26;;;;;;;3.23;1.13;;;;;;;13.56;71.94;101489.88;5037696;28;20224;-79
2022/07/10 00:52:19;;;;;;;2.97;1.10;;;;;;;13.47;72.01;101485.66;5038805;28;20235;-79
2022/07/10 00:55:02;;;;;;;3.73;0.80;;;;;;;13.63;71.36;101494.16;5037304;28;20342;-79
2022/07/10 00:57:34;;;;;;;2.17;0.93;;;;;;;13.36;72.17;101484.91;5038465;28;20225;-79
2022/07/10 01:00:11;;;;;;;2.73;0.90;;;;;;;13.44;72.73;101462.97;5037155;28;20298;-78
2022/07/10 01:02:45;;;;;;;2.47;0.77;;;;;;;13.47;71.54;101454.16;5038532;28;20296;-79
2022/07/10 01:08:08;;;;;;;3.33;0.80;;;;;;;13.45;71.44;101485.66;5038474;28;20605;-79
2022/07/10 01:10:42;;;;;;;3.03;0.60;;;;;;;13.34;70.74;101507.69;5038728;28;20208;-79
2022/07/10 01:13:25;;;;;;;3.13;0.90;;;;;;;13.48;71.10;101497.88;5054131;28;20210;-80
2022/07/10 01:16:00;;;;;;;3.43;1.10;;;;;;;13.30;71.55;101486.75;5059606;28;20609;-79
2022/07/10 01:18:47;;;;;;;6.90;0.90;;;;;;;13.27;72.47;101463.16;5066590;28;20249;-78
2022/07/10 01:21:42;;;;;;;3.13;1.13;;;;;;;13.40;72.01;101461.28;5077033;28;20211;-78
2022/07/10 01:24:18;;;;;;;1.83;0.70;;;;;;;13.49;71.99;101455.00;5077286;28;20210;-79
2022/07/10 01:26:55;;;;;;;3.43;1.10;;;;;;;13.45;71.16;101474.31;5078251;28;20209;-79
2022/07/10 01:29:28;;;;;;;2.00;0.70;;;;;;;13.29;71.97;101477.13;5076383;28;20227;-79
2022/07/10 01:32:01;;;;;;;2.80;0.67;;;;;;;13.36;71.64;101466.56;5075878;28;20233;-78
2022/07/10 01:34:50;;;;;;;1.37;0.70;;;;;;;13.30;72.30;101451.81;5060362;28;20215;-79
2022/07/10 01:37:33;;;;;;;2.67;0.80;;;;;;;13.28;71.94;101448.31;5077976;28;20213;-79
2022/07/10 01:40:24;;;;;;;1.97;0.87;;;;;;;13.33;71.69;101457.00;5076714;28;20352;-79
2022/07/10 01:42:53;;;;;;;4.37;1.00;;;;;;;13.26;71.95;101458.81;5077583;28;20233;-79
2022/07/10 01:45:25;;;;;;;3.43;0.67;;;;;;;13.28;71.86;101449.16;5075989;28;20212;-79
2022/07/10 01:48:00;;;;;;;0.97;0.60;;;;;;;13.26;72.22;101445.69;5062979;28;20271;-80
2022/07/10 01:53:18;;;;;;;2.97;1.23;;;;;;;13.20;72.02;101447.53;5055463;28;20252;-80
2022/07/10 01:55:56;;;;;;;2.70;0.70;;;;;;;13.25;72.10;101441.31;5040276;28;20314;-80
2022/07/10 01:58:28;;;;;;;3.83;0.80;;;;;;;13.22;72.04;101444.00;5055942;28;20227;-79
2022/07/10 02:01:13;;;;;;;1.13;0.50;;;;;;;13.27;71.22;101446.56;5056119;28;20214;-80
2022/07/10 02:09:31;;;;;;;2.23;0.77;;;;;;;13.16;72.73;101428.38;5055554;28;20234;-80
2022/07/10 02:12:17;;;;;;;5.43;1.00;;;;;;;13.09;73.05;101411.84;5056896;28;20593;-79
2022/07/10 02:14:51;;;;;;;1.43;0.50;;;;;;;13.19;73.30;101402.09;5056458;28;20257;-79
2022/07/10 02:17:27;;;;;;;1.20;0.50;;;;;;;13.10;73.36;101403.09;5063961;28;20210;-78
2022/07/10 02:19:57;;;;;;;5.87;0.80;;;;;;;13.14;74.37;101375.09;5064026;28;20669;-79
2022/07/10 02:22:36;;;;;;;2.50;1.17;;;;;;;13.28;74.04;101361.78;5053416;28;20718;-78
2022/07/10 02:25:12;;;;;;;3.43;0.90;;;;;;;13.18;74.40;101355.81;5056836;28;20294;-78
2022/07/10 02:30:41;;;;;;;3.90;1.00;;;;;;;13.06;75.29;101317.53;5056423;28;20236;-78
2022/07/10 02:33:23;;;;;;;3.00;1.00;;;;;;;13.24;74.79;101324.25;5056327;28;20267;-79
2022/07/10 02:36:00;;;;;;;2.07;0.73;;;;;;;13.20;75.09;101322.56;5057106;28;20202;-79
2022/07/10 02:38:56;;;;;;;2.93;1.07;;;;;;;13.15;75.74;101313.88;5058277;28;20323;-80
2022/07/10 02:41:32;;;;;;;2.00;0.70;;;;;;;13.20;75.43;101313.81;5056992;28;20741;-79
2022/07/10 02:44:16;;;;;;;2.43;0.90;;;;;;;13.08;75.91;101321.00;5056041;28;20202;-79
2022/07/10 02:50:28;;;;;;;2.40;0.97;;;;;;;12.98;76.55;101290.53;5056467;28;20717;-79
2022/07/10 02:53:07;;;;;;;7.43;1.57;;;;;;;13.01;76.18;101279.16;5056215;28;20250;-78
2022/07/10 02:55:45;;;;;;;1.90;0.80;;;;;;;13.13;75.82;101294.69;5055284;28;20202;-79
2022/07/10 02:58:20;;;;;;;3.93;0.80;;;;;;;13.15;75.90;101285.06;5054495;28;20227;-80
2022/07/10 03:00:59;;;;;;;2.33;1.17;;;;;;;13.07;76.52;101285.19;5055542;28;20262;-80
2022/07/10 03:03:35;;;;;;;2.07;0.90;;;;;;;13.02;76.28;101292.25;5055517;28;20234;-79
2022/07/10 03:06:12;;;;;;;3.93;1.00;;;;;;;13.07;76.08;101298.28;5055622;28;20192;-78
2022/07/10 03:08:44;;;;;;;3.33;1.00;;;;;;;12.95;76.89;101285.38;5055681;28;20326;-79
2022/07/10 03:11:20;;;;;;;3.17;1.00;;;;;;;13.04;76.95;101268.63;5054792;28;20224;-79
2022/07/10 03:13:50;;;;;;;4.00;0.90;;;;;;;13.04;77.54;101272.13;5059659;28;20595;-79
2022/07/10 03:16:23;;;;;;;2.77;0.90;;;;;;;12.98;78.45;101239.91;5057091;28;20216;-79
2022/07/10 03:18:56;;;;;;;2.17;0.90;;;;;;;13.02;78.17;101226.75;5068763;28;20723;-78
2022/07/10 03:24:26;;;;;;;4.13;1.03;;;;;;;13.01;79.39;101175.19;5058092;28;20638;-79
2022/07/10 03:27:02;;;;;;;3.20;0.80;;;;;;;12.91;80.26;101166.63;5041048;28;20206;-79
2022/07/10 03:29:53;;;;;;;2.67;0.90;;;;;;;12.98;80.02;101148.16;5059301;28;20203;-80
2022/07/10 03:32:29;;;;;;;3.40;0.90;;;;;;;12.78;81.40;101149.38;5042827;28;20219;-79
2022/07/10 03:35:04;;;;;;;2.40;1.10;;;;;;;12.88;81.21;101131.75;5058934;28;20681;-79
2022/07/10 03:40:27;;;;;;;2.93;1.30;;;;;;;12.81;82.31;101109.19;5057265;28;20579;-79
2022/07/10 03:43:24;;;;;;;5.53;1.40;;;;;;;12.84;82.35;101115.22;5058400;28;20245;-79
2022/07/10 03:45:56;;;;;;;2.20;0.87;;;;;;;12.96;82.00;101121.13;5058863;28;20242;-79
2022/07/10 03:48:26;;;;;;;3.57;0.87;;;;;;;13.05;81.44;101134.06;5066316;28;20228;-79
2022/07/10 03:51:08;;;;;;;3.53;0.90;;;;;;;12.94;82.14;101138.63;5077653;28;20246;-79
2022/07/10 03:53:48;;;;;;;4.00;0.90;;;;;;;12.93;82.17;101121.19;5077541;28;20693;-80
2022/07/10 03:59:16;;;;;;;3.40;1.40;;;;;;;12.95;82.01;101151.72;5078518;28;20233;-79
2022/07/10 04:02:23;;;;;;;3.17;1.70;;;;;;;12.83;82.28;101152.78;5076717;28;20211;-80
2022/07/10 04:05:13;;;;;;;2.03;0.90;;;;;;;12.88;82.31;101139.59;5077535;28;20203;-81
2022/07/10 04:07:46;;;;;;;4.47;0.97;;;;;;;12.88;81.99;101139.59;5077372;28;20280;-79
2022/07/10 04:10:32;;;;;;;2.53;0.90;;;;;;;12.78;82.39;101154.59;5062660;28;20234;-79
2022/07/10 04:13:07;;;;;;;4.80;1.10;;;;;;;12.91;81.93;101139.56;5081691;28;20658;-79
2022/07/10 04:15:54;;;;;;;2.73;0.80;;;;;;;13.04;81.84;101171.66;5080155;28;20236;-79
2022/07/10 04:18:31;;;;;;;3.33;1.03;;;;;;;12.90;82.03;101179.75;5059388;28;20220;-80
2022/07/10 04:21:10;;;;;;;3.50;1.00;;;;;;;13.02;81.31;101179.56;5039719;28;20199;-79
2022/07/10 04:23:39;;;;;;;3.57;0.87;;;;;;;13.09;81.13;101186.41;5036360;28;20748;-79
2022/07/10 04:26:18;;;;;;;1.87;0.87;;;;;;;13.10;80.76;101201.25;5021127;28;20217;-79
2022/07/10 04:28:57;;;;;;;2.70;1.10;;;;;;;13.13;80.33;101220.44;5037797;28;20314;-79
2022/07/10 04:31:30;;;;;;;2.07;0.80;;;;;;;13.08;80.87;101207.41;5039005;28;20231;-79
2022/07/10 04:34:02;;;;;;;4.97;1.07;;;;;;;13.25;80.48;101217.59;5038051;28;20232;-79
2022/07/10 04:39:23;;;;;;;3.70;1.27;;;;;;;13.24;80.07;101236.84;5038359;28;20224;-79
2022/07/10 04:41:56;;;;;;;2.97;0.90;;;;;;;13.23;79.65;101232.50;5038549;28;20727;-79
2022/07/10 04:44:29;;;;;;;3.20;1.27;;;;;;;13.37;79.24;101251.50;5038666;28;20213;-78
2022/07/10 04:47:00;;;;;;;2.27;0.90;;;;;;;13.29;79.97;101240.25;5053879;28;20257;-79
2022/07/10 04:49:34;;;;;;;3.83;1.53;;;;;;;13.24;79.44;101249.94;5070037;28;20227;-79
2022/07/10 04:52:13;;;;;;;2.03;1.37;;;;;;;13.26;80.12;101246.44;5076063;28;20241;-80
2022/07/10 04:54:45;;;;;;;2.27;0.80;;;;;;;13.04;79.97;101245.94;5078421;28;20698;-79
2022/07/10 04:57:23;;;;;;;2.20;0.90;;;;;;;13.25;79.04;101264.81;5077500;28;20205;-79
2022/07/10 04:59:53;;;;;;;2.43;1.00;;;;;;;13.33;78.77;101273.44;5078295;28;20672;-79
2022/07/10 05:05:49;;;;;;;3.10;0.93;;;;;;;13.22;78.65;101275.31;5078224;28;20207;-79
2022/07/10 05:08:32;;;;;;;1.53;0.67;;;;;;;13.13;78.64;101293.84;5076596;28;20315;-79
2022/07/10 05:11:08;;;;;;;4.20;1.20;;;;;;;13.15;79.29;101276.34;5076805;28;20211;-79
2022/07/10 05:13:52;;;;;;;4.60;1.00;;;;;;;13.12;79.10;101271.97;5078289;28;20222;-79
2022/07/10 05:16:43;;;;;;;5.40;1.20;;;;;;;13.16;79.50;101271.06;5071508;28;20570;-79
2022/07/10 05:19:12;;;;;;;4.63;1.60;;;;;;;13.06;78.67;101280.84;5059695;28;20223;-78
2022/07/10 05:21:48;;;;;;;4.87;1.13;;;;;;;13.28;78.63;101286.59;5057199;28;20223;-79
2022/07/10 05:24:25;;;;;;;2.77;0.80;;;;;;;13.26;78.24;101305.84;5056057;28;20363;-79
2022/07/10 05:26:58;;;;;;;2.33;1.07;;;;;;;13.38;77.38;101336.28;5055537;28;20209;-80
2022/07/10 05:29:29;;;;;;;3.33;0.77;;;;;;;13.41;77.67;101350.22;5055506;28;20268;-79
2022/07/10 05:32:06;;;;;;;2.77;0.93;;;;;;;13.58;77.22;101355.19;5057193;28;20573;-79
2022/07/10 05:34:36;;;;;;;4.07;1.20;;;;;;;13.38;77.83;101359.88;5040548;28;20656;-79
2022/07/10 05:37:10;;;;;;;4.30;1.10;;;;;;;13.34;77.01;101359.09;5055854;28;20215;-79
2022/07/10 05:39:38;;;;;;;2.17;1.13;;;;;;;13.31;77.23;101359.97;5057423;28;20207;-78
2022/07/10 05:42:18;;;;;;;3.30;0.83;;;;;;;13.28;77.55;101349.53;5056302;28;20295;-78
2022/07/10 05:44:57;;;;;;;5.67;1.10;;;;;;;13.38;77.24;101357.25;5057225;28;20678;-79
2022/07/10 05:47:48;;;;;;;4.27;1.40;;;;;;;13.49;76.71;101371.94;5065062;28;20236;-79
2022/07/10 05:50:31;;;;;;;2.50;1.00;;;;;;;13.58;75.81;101388.44;5057556;28;20637;-79
2022/07/10 05:53:07;;;;;;;5.47;0.90;;;;;;;13.60;76.05;101386.66;5056221;28;20560;-78
2022/07/10 05:55:44;;;;;;;2.40;1.03;;;;;;;13.46;76.43;101390.38;5055391;28;20743;-80
2022/07/10 05:58:12;;;;;;;3.30;0.90;;;;;;;13.45;76.10;101390.38;5056165;28;20695;-79
2022/07/10 06:00:54;;;;;;;3.53;0.80;;;;;;;13.65;75.85;101400.56;5053483;28;20661;-79
2022/07/10 06:03:28;;;;;;;4.73;1.17;;;;;;;13.57;76.03;101402.44;5053203;28;20662;-79
2022/07/10 06:06:10;;;;;;;13.23;1.40;;;;;;;13.66;75.48;101412.78;5055215;28;20661;-78
2022/07/10 06:08:45;;;;;;;3.77;1.20;;;;;;;13.64;75.49;101404.09;5054765;28;20751;-79
2022/07/10 06:11:17;;;;;;;3.13;1.30;;;;;;;13.66;75.11;101412.78;5055250;28;20653;-77
2022/07/10 06:14:04;;;;;;;2.97;1.20;;;;;;;13.86;75.01;101429.06;5052377;28;20725;-78
2022/07/10 06:16:30;;;;;;;3.07;1.20;;;;;;;13.99;74.38;101448.09;5054547;28;20690;-78
2022/07/10 06:18:57;;;;;;;3.37;1.13;;;;;;;13.91;74.45;101457.84;5054917;28;20574;-79
2022/07/10 06:21:23;;;;;;;4.10;1.40;;;;;;;13.88;74.68;101450.91;5054116;28;20200;-79
2022/07/10 06:23:51;;;;;;;3.40;1.47;;;;;;;13.92;75.22;101432.50;5054085;28;20200;-80
2022/07/10 06:26:18;;;;;;;1.87;1.17;;;;;;;13.88;74.55;101443.03;5055227;28;20200;-79
2022/07/10 06:28:44;;;;;;;3.07;1.30;;;;;;;13.86;74.77;101452.69;5055563;28;20746;-78
2022/07/10 06:31:11;;;;;;;2.87;0.90;;;;;;;13.97;75.38;101428.03;5055094;28;20193;-78
2022/07/10 06:33:38;;;;;;;2.70;1.20;;;;;;;14.12;75.48;101419.88;5052754;28;20228;-79
2022/07/10 06:36:06;;;;;;;3.33;1.23;;;;;;;14.10;74.16;101450.56;5054965;28;20200;-79
2022/07/10 06:38:32;;;;;;;2.13;0.90;;;;;;;14.31;74.36;101457.19;5055053;28;20232;-79
2022/07/10 06:41:00;;;;;;;2.77;1.07;;;;;;;14.17;74.34;101462.69;5053097;28;20208;-79
2022/07/10 06:43:27;;;;;;;4.70;1.23;;;;;;;14.32;74.88;101460.69;5056365;28;20250;-78
2022/07/10 06:45:53;;;;;;;4.30;1.50;;;;;;;14.43;73.62;101450.81;5055618;28;20208;-78
2022/07/10 06:48:20;;;;;;;2.20;1.00;;;;;;;14.47;73.53;101478.78;5062611;28;20224;-78
2022/07/10 06:50:46;;;;;;;2.83;0.93;;;;;;;14.67;72.88;101491.59;5061371;28;20212;-79
2022/07/10 06:53:13;;;;;;;3.53;1.50;;;;;;;14.65;71.30;101536.28;5060386;28;20559;-79
2022/07/10 06:55:40;;;;;;;3.93;1.43;;;;;;;14.62;71.30;101559.97;5060692;28;20255;-78
2022/07/10 06:58:08;;;;;;;2.87;1.10;;;;;;;14.67;71.01;101560.78;5060249;28;20270;-79
2022/07/10 07:00:34;;;;;;;3.17;1.63;;;;;;;14.71;70.76;101574.75;5059844;28;20202;-78
2022/07/10 07:03:01;;;;;;;7.67;0.90;;;;;;;14.68;69.46;101598.44;5061291;28;20231;-79
2022/07/10 07:05:27;;;;;;;3.47;1.30;;;;;;;14.53;70.32;101599.53;5059795;28;20204;-79
2022/07/10 07:07:54;;;;;;;2.10;1.00;;;;;;;14.50;70.89;101574.16;5058824;28;20229;-75
2022/07/10 07:10:20;;;;;;;2.77;1.10;;;;;;;14.58;71.16;101563.56;5054935;28;20226;-76
2022/07/10 07:12:47;;;;;;;2.50;0.93;;;;;;;14.68;70.77;101557.25;5054886;28;20211;-77
2022/07/10 07:15:16;;;;;;;4.73;1.07;;;;;;;14.74;70.01;101571.19;5054409;28;20655;-77
2022/07/10 07:18:07;;;;;;;2.37;1.10;;;;;;;14.88;70.14;101579.66;5057779;28;20223;-77
2022/07/10 07:23:17;;;;;;;3.03;0.90;;;;;;;14.95;68.21;101646.19;5054639;28;20192;-77
2022/07/10 07:25:46;;;;;;;2.77;1.20;;;;;;;15.07;68.33;101652.06;5054631;28;20254;-76
2022/07/10 07:28:15;;;;;;;4.27;1.23;;;;;;;15.14;67.10;101662.47;5054415;28;20220;-75
2022/07/10 07:30:43;;;;;;;3.43;0.90;;;;;;;15.31;66.97;101673.56;5051437;28;20687;-76
2022/07/10 07:33:09;;;;;;;4.00;1.00;;;;;;;15.51;67.14;101669.69;5054415;28;20207;-77
2022/07/10 07:35:36;;;;;;;2.73;0.97;;;;;;;15.50;65.38;101668.81;5054101;28;20221;-76
2022/07/10 07:38:03;;;;;;;3.17;1.20;;;;;;;15.41;64.45;101722.47;5054150;28;20252;-76
2022/07/10 07:40:30;;;;;;;4.53;0.90;;;;;;;15.28;65.08;101758.69;5054385;28;20196;-76
2022/07/10 07:42:57;;;;;;;3.93;0.87;;;;;;;15.34;63.78;101764.69;5053956;28;20198;-76
2022/07/10 07:45:24;;;;;;;5.30;2.23;;;;;;;15.30;64.96;101753.34;5053228;28;20194;-77
2022/07/10 07:47:53;;;;;;;5.80;1.50;;;;;;;15.20;65.89;101733.38;5056722;28;20224;-77
2022/07/10 07:50:22;;;;;;;5.97;1.17;;;;;;;15.33;65.55;101716.50;5052803;28;20671;-76
2022/07/10 07:52:49;;;;;;;3.50;0.90;;;;;;;15.40;65.45;101710.22;5053643;28;20663;-77
2022/07/10 07:55:17;;;;;;;2.57;1.17;;;;;;;15.39;65.39;101724.25;5053400;28;20213;-76
2022/07/10 07:57:44;;;;;;;4.03;1.10;;;;;;;15.44;65.12;101708.38;5053083;28;20598;-77
2022/07/10 08:00:12;;;;;;;3.93;0.97;;;;;;;15.52;64.65;101714.41;5053324;28;20262;-76
2022/07/10 08:02:39;;;;;;;3.83;1.23;;;;;;;15.55;65.17;101732.75;5052922;28;20259;-76
2022/07/10 08:05:09;;;;;;;3.90;1.43;;;;;;;15.69;65.29;101735.13;5055707;28;20691;-81
2022/07/10 08:07:37;;;;;;;4.43;1.20;;;;;;;15.70;65.04;101736.84;5055852;28;20217;-78
2022/07/10 08:10:04;;;;;;;3.03;1.20;;;;;;;15.56;64.86;101737.13;5055759;28;20202;-79
2022/07/10 08:12:31;;;;;;;3.93;1.33;;;;;;;15.49;65.74;101725.81;5055457;28;20201;-77
2022/07/10 08:14:58;;;;;;;2.20;1.20;;;;;;;15.42;65.38;101724.22;5054596;28;20217;-78
2022/07/10 08:17:24;;;;;;;5.37;1.30;;;;;;;15.55;65.26;101729.25;5056464;28;20225;-78
2022/07/10 08:19:51;;;;;;;2.60;1.20;;;;;;;15.70;64.63;101728.97;5058061;28;20232;-77
2022/07/10 08:22:18;;;;;;;5.50;0.80;;;;;;;15.87;64.46;101744.44;5054872;28;20201;-78
2022/07/10 08:24:45;;;;;;;2.80;1.23;;;;;;;15.91;63.30;101761.06;5054007;28;20255;-78
2022/07/10 08:27:12;;;;;;;4.97;1.10;;;;;;;15.95;62.73;101782.03;5057035;28;20552;-80
2022/07/10 08:29:38;;;;;;;1.40;0.90;;;;;;;16.03;63.67;101772.19;5056935;28;20216;-80
2022/07/10 08:32:05;;;;;;;3.03;0.80;;;;;;;15.97;62.63;101779.38;5057342;28;20284;-80
2022/07/10 08:34:33;;;;;;;2.20;1.20;;;;;;;15.89;62.18;101790.03;5056719;28;20233;-81
2022/07/10 08:37:00;;;;;;;3.70;1.23;;;;;;;15.94;61.90;101803.16;5055028;28;20735;-80
2022/07/10 08:39:28;;;;;;;3.60;1.20;;;;;;;15.75;62.69;101790.31;5055227;28;20307;-79
2022/07/10 08:41:55;;;;;;;1.70;1.30;;;;;;;15.69;62.92;101808.81;5054647;28;20210;-78
2022/07/10 08:44:22;;;;;;;2.47;1.17;;;;;;;15.96;63.08;101786.41;5056596;28;20208;-80
2022/07/10 08:46:48;;;;;;;4.73;1.40;;;;;;;16.01;59.69;101786.31;5061015;28;20294;-81
2022/07/10 08:49:18;;;;;;;4.23;1.43;;;;;;;16.16;59.36;101870.31;5066446;28;20313;-82
2022/07/10 08:51:49;;;;;;;2.57;1.00;;;;;;;16.22;59.37;101893.03;5077765;28;20295;-83
2022/07/10 08:54:16;;;;;;;6.43;1.50;;;;;;;16.26;59.35;101897.34;5076987;28;20271;-82
2022/07/10 08:56:44;;;;;;;2.63;1.13;;;;;;;16.17;58.32;101908.06;5076906;28;20247;-81
2022/07/10 08:59:14;;;;;;;2.30;1.00;;;;;;;16.43;56.82;101923.34;5076593;28;20589;-81
2022/07/10 09:01:41;;;;;;;4.53;1.60;;;;;;;16.83;58.23;101918.19;5076660;28;20734;-80
2022/07/10 09:04:07;;;;;;;3.90;0.90;;;;;;;16.78;55.89;101948.16;5080420;28;20239;-80
2022/07/10 09:06:34;;;;;;;4.30;1.43;;;;;;;16.65;55.67;101972.16;5077427;28;20248;-82
2022/07/10 09:09:04;;;;;;;4.37;1.13;;;;;;;16.53;56.32;101989.94;5076855;28;20240;-81
2022/07/10 09:11:30;;;;;;;2.57;1.00;;;;;;;16.50;55.02;101972.44;5076559;28;20207;-83
2022/07/10 09:14:00;;;;;;;3.37;1.03;;;;;;;16.48;56.08;101983.00;5072869;28;20198;-84
2022/07/10 09:16:28;;;;;;;3.47;1.20;;;;;;;16.66;56.95;101965.09;5057854;28;20254;-79
2022/07/10 09:18:54;;;;;;;2.47;0.80;;;;;;;16.85;55.45;101944.53;5066630;28;20217;-79
2022/07/10 09:21:21;;;;;;;4.93;1.00;;;;;;;16.85;55.10;101976.19;5074924;28;20208;-80
2022/07/10 09:23:49;;;;;;;4.00;1.10;;;;;;;16.91;55.59;101976.06;5074598;28;20221;-80
2022/07/10 09:26:15;;;;;;;3.17;1.00;;;;;;;16.85;55.14;101994.66;5074419;28;20288;-81
2022/07/10 09:28:42;;;;;;;3.37;1.00;;;;;;;16.78;56.51;101978.03;5074387;28;20279;-82
2022/07/10 09:31:09;;;;;;;4.97;1.20;;;;;;;16.55;58.22;101944.22;5076361;28;20220;-78
2022/07/10 09:33:37;;;;;;;3.63;1.20;;;;;;;16.41;58.41;101902.31;5075687;28;20205;-82
2022/07/10 09:36:08;;;;;;;2.17;1.07;;;;;;;16.53;58.59;101885.41;5076014;28;20263;-82
2022/07/10 09:38:52;;;;;;;4.13;1.40;;;;;;;16.49;59.66;101870.56;5076964;28;20232;-82
2022/07/10 09:41:21;;;;;;;2.63;1.10;;;;;;;16.45;59.36;101842.50;5078322;28;20213;-80
2022/07/10 09:43:48;;;;;;;3.43;1.67;;;;;;;16.34;59.85;101860.31;5077643;28;20259;-80
2022/07/10 09:46:17;;;;;;;3.93;1.30;;;;;;;16.55;58.63;101832.63;5072007;28;20275;-81
2022/07/10 09:48:44;;;;;;;3.33;1.13;;;;;;;16.67;58.76;101853.47;5068748;28;20217;-80
2022/07/10 09:51:12;;;;;;;2.33;1.10;;;;;;;16.44;58.92;101865.34;5076733;28;20209;-80
2022/07/10 09:53:40;;;;;;;5.70;1.30;;;;;;;16.41;58.92;101854.00;5077742;28;20209;-80
2022/07/10 09:56:08;;;;;;;2.80;1.30;;;;;;;16.56;57.60;101871.28;5077972;28;20293;-80
2022/07/10 09:58:36;;;;;;;4.60;1.50;;;;;;;16.87;56.41;101875.03;5078451;28;20225;-80
2022/07/10 10:01:04;;;;;;;2.40;0.70;;;;;;;17.05;55.04;101909.81;5076605;28;20224;-80
2022/07/10 10:03:35;;;;;;;2.17;1.03;;;;;;;17.26;55.90;101959.47;5076895;28;20185;-84
2022/07/10 10:06:04;;;;;;;2.43;0.90;;;;;;;17.04;54.74;101961.69;5076311;28;20256;-82
2022/07/10 10:08:37;;;;;;;2.90;0.93;;;;;;;16.80;56.10;101967.47;5078210;28;20317;-80
2022/07/10 10:11:05;;;;;;;3.23;1.30;;;;;;;16.68;56.67;101956.25;5077035;28;20212;-80
2022/07/10 10:13:34;;;;;;;2.97;1.30;;;;;;;16.75;57.19;101935.91;5075181;28;20200;-80
2022/07/10 10:16:02;;;;;;;3.20;1.20;;;;;;;16.81;56.65;101919.09;5067383;28;20761;-77
2022/07/10 10:18:29;;;;;;;2.73;1.83;;;;;;;16.84;56.65;101905.88;5060183;28;20225;-76
2022/07/10 10:20:56;;;;;;;3.97;1.00;;;;;;;16.87;57.06;101911.09;5070792;28;20887;-77
2022/07/10 10:23:25;;;;;;;3.07;1.03;;;;;;;17.01;57.72;101906.38;5071477;28;20208;-80
2022/07/10 10:25:53;;;;;;;3.13;1.20;;;;;;;17.02;57.04;101901.94;5074487;28;20198;-81
2022/07/10 10:28:23;;;;;;;3.53;1.60;;;;;;;17.15;56.82;101908.69;5073739;28;20232;-81
2022/07/10 10:30:51;;;;;;;5.63;1.10;;;;;;;17.48;56.94;101877.13;5074102;28;20258;-80
2022/07/10 10:33:44;;;;;;;6.63;1.20;;;;;;;17.54;55.73;101876.09;5074724;28;20271;-83
2022/07/10 10:36:17;;;;;;;3.13;1.10;;;;;;;17.52;54.79;101944.81;5067267;28;20245;-80
2022/07/10 10:39:04;;;;;;;2.97;1.27;;;;;;;17.67;54.11;101943.56;5073572;28;20220;-80
2022/07/10 10:41:38;;;;;;;3.10;1.00;;;;;;;17.61;53.19;101985.97;5073828;28;20205;-80
2022/07/10 10:44:24;;;;;;;1.60;1.00;;;;;;;17.65;52.73;102006.09;5073721;28;20254;-80
2022/07/10 10:47:00;;;;;;;3.60;1.40;;;;;;;17.59;52.55;102001.84;5067661;28;20662;-80
2022/07/10 10:49:28;;;;;;;3.53;1.33;;;;;;;17.77;53.67;102013.72;5065759;28;20244;-84
2022/07/10 10:52:00;;;;;;;5.73;1.60;;;;;;;17.93;52.55;102011.63;5074310;28;20262;-82
2022/07/10 10:54:26;;;;;;;3.72;1.40;;;;;;;17.92;52.76;102001.09;5072752;28;20426;-76
2022/07/10 10:57:14;;;;;;;2.57;1.53;;;;;;;17.92;53.19;102016.94;5071507;28;20245;-76
2022/07/10 10:59:47;;;;;;;4.00;1.20;;;;;;;18.10;53.52;102016.50;5071615;28;20214;-76
2022/07/10 11:02:23;;;;;;;3.03;1.10;;;;;;;18.01;51.86;102019.38;5053590;28;20630;-75
2022/07/10 11:04:50;;;;;;;2.50;1.20;;;;;;;17.93;51.58;102034.53;5049204;28;20199;-76
2022/07/10 11:07:55;;;;;;;3.93;1.43;;;;;;;18.06;51.96;102034.22;5050728;28;20195;-76
2022/07/10 11:10:31;;;;;;;3.23;1.20;;;;;;;18.19;51.97;102037.41;5020648;28;20208;-76
2022/07/10 11:12:59;;;;;;;4.17;1.23;;;;;;;18.29;51.83;102038.03;5031064;28;20219;-76
2022/07/10 11:15:26;;;;;;;3.43;1.10;;;;;;;18.43;50.59;102054.44;5030730;28;20227;-77
2022/07/10 11:17:53;;;;;;;2.87;0.90;;;;;;;18.33;50.33;102070.56;5051327;28;20229;-75
2022/07/10 11:20:21;;;;;;;5.30;1.30;;;;;;;18.50;51.09;102084.22;5051481;28;20662;-76
2022/07/10 11:22:53;;;;;;;3.57;1.10;;;;;;;18.85;50.56;102070.09;5051349;28;20203;-77
2022/07/10 11:25:44;;;;;;;4.07;1.00;;;;;;;18.88;49.39;102055.91;5050423;28;20211;-76
2022/07/10 11:28:12;;;;;;;2.00;0.80;;;;;;;18.53;50.09;102073.56;5051364;28;20263;-76
2022/07/10 11:30:47;;;;;;;3.90;1.20;;;;;;;18.37;51.30;102065.13;5051310;28;20214;-76
2022/07/10 11:33:13;;;;;;;5.33;1.53;;;;;;;18.65;51.41;102036.22;5052601;28;20628;-75
2022/07/10 11:35:40;;;;;;;4.30;1.10;;;;;;;18.76;51.45;102022.69;5054125;28;20708;-76
2022/07/10 11:38:07;;;;;;;2.33;1.17;;;;;;;19.09;51.04;102008.56;5054276;28;20244;-77
2022/07/10 11:40:38;;;;;;;1.77;0.90;;;;;;;19.35;49.95;102008.66;5054586;28;20212;-76
2022/07/10 11:43:06;;;;;;;3.73;1.27;;;;;;;19.23;47.94;102044.31;5054244;28;20218;-76
2022/07/10 11:45:36;;;;;;;2.50;0.97;;;;;;;18.93;49.06;102090.16;5053867;28;20701;-76
2022/07/10 11:48:04;;;;;;;1.93;0.90;;;;;;;18.73;48.06;102069.50;5059653;28;20649;-76
2022/07/10 11:50:37;;;;;;;2.40;0.73;;;;;;;18.56;48.93;102117.59;5065804;28;20197;-75
2022/07/10 11:53:04;;;;;;;1.63;0.80;;;;;;;18.48;48.59;102106.34;5074282;28;20209;-76
2022/07/10 11:55:31;;;;;;;2.27;0.70;;;;;;;19.01;48.66;102099.66;5073121;28;20277;-76
2022/07/10 11:57:59;;;;;;;3.67;0.90;;;;;;;19.00;47.76;102091.75;5074086;28;20656;-76
2022/07/10 12:00:28;;;;;;;2.37;1.00;;;;;;;19.50;47.55;102096.50;5074370;28;20214;-76
2022/07/10 12:02:55;;;;;;;1.83;0.80;;;;;;;19.92;46.20;102118.22;5073842;28;20562;-76
2022/07/10 12:05:35;;;;;;;1.60;0.90;;;;;;;19.40;47.18;102164.75;5065053;28;20573;-76
2022/07/10 12:08:02;;;;;;;4.13;1.20;;;;;;;19.34;48.02;102149.03;5064958;28;20288;-77
2022/07/10 12:10:29;;;;;;;2.93;0.90;;;;;;;19.00;48.74;102120.84;5074245;28;20203;-76
2022/07/10 12:13:05;;;;;;;1.87;0.93;;;;;;;18.56;50.42;102113.16;5074142;28;20207;-76
2022/07/10 12:15:33;;;;;;;5.63;1.40;;;;;;;18.76;50.42;102056.22;5073796;28;20231;-76
2022/07/10 12:17:59;;;;;;;3.37;1.27;;;;;;;18.66;50.63;102050.31;5073359;28;20254;-76
2022/07/10 12:20:27;;;;;;;1.27;0.90;;;;;;;18.34;51.76;102033.50;5073692;28;20211;-76
2022/07/10 12:22:54;;;;;;;3.10;1.37;;;;;;;18.27;53.10;102016.06;5073759;28;20214;-76
2022/07/10 12:25:21;;;;;;;2.93;0.90;;;;;;;18.42;52.91;101994.50;5073458;28;20210;-77
2022/07/10 12:27:47;;;;;;;3.93;1.37;;;;;;;18.11;53.51;101980.38;5073571;28;20225;-79
2022/07/10 12:30:15;;;;;;;3.80;1.20;;;;;;;17.95;53.94;101982.53;5074027;28;20211;-77
2022/07/10 12:32:41;;;;;;;4.80;1.73;;;;;;;17.66;55.01;101962.97;5073347;28;20265;-76